Killeen-Fort Hood Regional, TX

4:25 PM CDT on May 30, 2015 (GMT -0500)
Fort Hood | | Change Station
CLOSE
Current Station
Airport
Location: Fort Hood,
Elevation: 1014 ft
Nearby Weather Stations

Elev 1014 ft 31.07 °N, 97.83 °W | Updated 27 minutes ago

Partly Cloudy
Partly Cloudy
82 °F
Feels Like 84 °F
N
12
Wind Variable Wind from North

Today
High -- | Low -- °F
--% Chance of Precip.
Yesterday
High -- | Low -- °F
Precip. -- in
6:28 AM 8:29 PM
Waxing Gibbous, 92% visible
Pressure 30.01 in
Visibility 10.0 miles
Clouds Clear
Heat Index 84 °F
Dew Point 64 °F
Humidity 53%
Rainfall 0.00 in
Snow Depth Not available.
UV 9 out of 12
Pollen 2.70 out of 12
Air Quality Not available.
Flu Activity Local Activity
METAR KGRK 302058Z AUTO 35010KT 10SM CLR 28/18 A3003 RMK AO2 LTG DSNT S SLP160 T02800177 57016

More Conditions Fewer Conditions

Pressure 30.01 in
Visibility 10.0 miles
Clouds Clear
Heat Index 84 °F
Dew Point 64 °F
Humidity 53%
Rainfall 0.00 in
Snow Depth Not available.
UV 9 out of 12
Pollen 2.70 out of 12
Air Quality Not available.
Flu Activity Local Activity
METAR KGRK 302058Z AUTO 35010KT 10SM CLR 28/18 A3003 RMK AO2 LTG DSNT S SLP160 T02800177 57016

More Conditions Fewer Conditions

10-Day Weather Forecast

Almanac

Astronomy

May. 30, 2015 Rise Set
Actual Time
Civil Twilight
Nautical Twilight
Astronomical Twilight
Moon
Length of Visible Light
Length of Day
Tomorrow will be .
, % of the Moon is Illuminated

Today's Extremes

State Highs State Lows

Community

WunderPhotos

Upload Photos

1,825,608 photos uploaded!

WunderBlogs® & News

Nearby

Air Quality

  Air Quality AQ Index Pollutant
Not available.

Snow Depth

Station Depth Elevation

Earthquake Activity

City Distance Mag. Time & Date
Minimum magnitude displayed is 2.5.

Coastal Water Temperatures

Place Temperature

Stations

Nearby Weather Stations

Station Location Temp. Windchill Dew Point Humidity Wind Precip. Elev Updated Type